Time;durP1;ratioP1;P1;durP2;ratioP2;P2;SDS_P1;SDS_P2;PMS_P1;PMS_P2;Temp;Humidity;BMP_temperature;BMP_pressure;BME280_temperature;BME280_humidity;BME280_pressure;Samples;Min_cycle;Max_cycle;Signal;HPM_P1;HPM_P2
2022/04/10 00:00:21;;;;;;;;;;;7.30;74.60;;;;;;5053878;28;19928;-80
2022/04/10 00:02:47;;;;;;;;;;;7.30;74.70;;;;;;5053430;28;19928;-80
2022/04/10 00:05:14;;;;;;;;;;;7.30;74.90;;;;;;5059278;28;19940;-80
2022/04/10 00:07:40;;;;;;;;;;;7.30;74.90;;;;;;5054399;28;19932;-81
2022/04/10 00:10:07;;;;;;;;;;;7.20;74.90;;;;;;5057939;28;19929;-80
2022/04/10 00:12:34;;;;;;;;;;;7.20;75.00;;;;;;5058913;28;19938;-80
2022/04/10 00:15:03;;;;;;;;;;;7.20;75.00;;;;;;5057597;28;19967;-80
2022/04/10 00:17:29;;;;;;;;;;;7.20;75.10;;;;;;5055407;28;19935;-80
2022/04/10 00:19:56;;;;;;;;;;;7.20;75.20;;;;;;5057961;28;19928;-80
2022/04/10 00:22:22;;;;;;;;;;;7.20;75.30;;;;;;5055559;28;19924;-80
2022/04/10 00:24:49;;;;;;;;;;;7.20;76.00;;;;;;5056658;28;19928;-80
2022/04/10 00:27:16;;;;;;;;;;;7.10;75.30;;;;;;5058394;28;19934;-80
2022/04/10 00:29:43;;;;;;;;;;;7.10;75.40;;;;;;5058876;28;20338;-81
2022/04/10 00:32:11;;;;;;;;;;;7.10;75.60;;;;;;5055440;28;19932;-80
2022/04/10 00:34:37;;;;;;;;;;;7.10;75.60;;;;;;5060755;28;19928;-80
2022/04/10 00:37:04;;;;;;;;;;;7.10;75.60;;;;;;5059473;28;19932;-80
2022/04/10 00:39:31;;;;;;;;;;;7.10;75.80;;;;;;5057553;28;19928;-80
2022/04/10 00:41:57;;;;;;;;;;;7.10;75.80;;;;;;5057795;28;20023;-80
2022/04/10 00:44:24;;;;;;;;;;;7.10;76.00;;;;;;5056843;28;20157;-80
2022/04/10 00:46:50;;;;;;;;;;;7.00;76.00;;;;;;5060450;28;19928;-80
2022/04/10 00:49:19;;;;;;;;;;;7.00;76.00;;;;;;5056487;28;21739;-80
2022/04/10 00:51:46;;;;;;;;;;;7.00;76.10;;;;;;5058639;28;19933;-80
2022/04/10 00:54:14;;;;;;;;;;;7.00;76.10;;;;;;5057396;28;19978;-79
2022/04/10 00:56:41;;;;;;;;;;;7.00;76.20;;;;;;5056181;28;19996;-80
2022/04/10 00:59:07;;;;;;;;;;;7.00;76.30;;;;;;5056446;28;20737;-80
2022/04/10 01:01:34;;;;;;;;;;;7.00;76.30;;;;;;5051806;28;19940;-80
2022/04/10 01:04:01;;;;;;;;;;;6.90;77.00;;;;;;5049269;28;20016;-80
2022/04/10 01:06:29;;;;;;;;;;;6.90;76.40;;;;;;5055980;28;20645;-80
2022/04/10 01:08:55;;;;;;;;;;;6.90;76.50;;;;;;5054668;28;20010;-80
2022/04/10 01:11:22;;;;;;;;;;;6.80;76.50;;;;;;5054096;28;19962;-80
2022/04/10 01:13:48;;;;;;;;;;;6.80;76.60;;;;;;5052678;28;19929;-80
2022/04/10 01:16:15;;;;;;;;;;;6.80;76.60;;;;;;5052557;28;19928;-80
2022/04/10 01:18:42;;;;;;;;;;;6.80;76.80;;;;;;5055138;28;19937;-80
2022/04/10 01:21:09;;;;;;;;;;;6.80;76.90;;;;;;5055906;28;19962;-80
2022/04/10 01:23:38;;;;;;;;;;;6.70;76.90;;;;;;5052817;28;19935;-80
2022/04/10 01:26:05;;;;;;;;;;;6.70;77.10;;;;;;5051153;28;19932;-80
2022/04/10 01:28:31;;;;;;;;;;;6.70;77.20;;;;;;5056372;28;19932;-80
2022/04/10 01:30:58;;;;;;;;;;;6.70;77.20;;;;;;5057764;28;20295;-80
2022/04/10 01:33:25;;;;;;;;;;;6.60;77.30;;;;;;5051388;28;21770;-80
2022/04/10 01:35:51;;;;;;;;;;;6.70;77.30;;;;;;5052693;28;20549;-80
2022/04/10 01:38:18;;;;;;;;;;;6.60;77.30;;;;;;5049824;28;20400;-80
2022/04/10 01:40:47;;;;;;;;;;;6.60;77.30;;;;;;5057601;28;20457;-80
2022/04/10 01:43:13;;;;;;;;;;;6.60;77.30;;;;;;5053792;28;19951;-80
2022/04/10 01:45:40;;;;;;;;;;;6.60;78.10;;;;;;5054286;28;19928;-80
2022/04/10 01:48:07;;;;;;;;;;;6.50;77.40;;;;;;5057078;28;19935;-80
2022/04/10 01:50:33;;;;;;;;;;;6.50;77.40;;;;;;5057804;28;19932;-80
2022/04/10 01:53:03;;;;;;;;;;;6.50;77.50;;;;;;5058919;28;19932;-81
2022/04/10 01:55:29;;;;;;;;;;;6.50;77.60;;;;;;5053339;28;20740;-81
2022/04/10 01:57:57;;;;;;;;;;;6.50;77.70;;;;;;5062516;28;19928;-81
2022/04/10 02:00:24;;;;;;;;;;;6.40;77.70;;;;;;5056557;28;19939;-80
2022/04/10 02:02:50;;;;;;;;;;;6.40;77.80;;;;;;5055953;28;20408;-80
2022/04/10 02:05:17;;;;;;;;;;;6.40;77.90;;;;;;5057035;28;20033;-80
2022/04/10 02:07:43;;;;;;;;;;;6.30;78.10;;;;;;5060715;28;19932;-80
2022/04/10 02:10:10;;;;;;;;;;;6.30;78.00;;;;;;5059423;28;19932;-80
2022/04/10 02:12:37;;;;;;;;;;;6.30;78.10;;;;;;5061786;28;20023;-79
2022/04/10 02:15:05;;;;;;;;;;;6.30;78.10;;;;;;5060559;28;19924;-80
2022/04/10 02:17:32;;;;;;;;;;;6.20;78.20;;;;;;5066037;28;19933;-80
2022/04/10 02:19:58;;;;;;;;;;;6.30;78.40;;;;;;5060985;28;19959;-79
2022/04/10 02:22:25;;;;;;;;;;;6.20;78.60;;;;;;5058664;28;20225;-79
2022/04/10 02:24:53;;;;;;;;;;;6.20;78.60;;;;;;5053757;28;20372;-80
2022/04/10 02:27:20;;;;;;;;;;;6.20;78.70;;;;;;5056187;28;20022;-80
2022/04/10 02:29:46;;;;;;;;;;;6.20;78.80;;;;;;5053617;28;20551;-80
2022/04/10 02:32:14;;;;;;;;;;;6.20;78.80;;;;;;5058464;28;19935;-80
2022/04/10 02:34:41;;;;;;;;;;;6.20;78.90;;;;;;5059181;28;19928;-80
2022/04/10 02:37:07;;;;;;;;;;;6.10;79.00;;;;;;5060974;28;19928;-79
2022/04/10 02:39:34;;;;;;;;;;;6.10;79.00;;;;;;5057716;28;19935;-79
2022/04/10 02:42:00;;;;;;;;;;;6.10;79.20;;;;;;5058166;28;19935;-80
2022/04/10 02:44:27;;;;;;;;;;;6.10;79.30;;;;;;5055883;28;19928;-80
2022/04/10 02:46:53;;;;;;;;;;;6.00;79.30;;;;;;5058805;28;19940;-80
2022/04/10 02:49:21;;;;;;;;;;;6.00;79.40;;;;;;5057724;28;19933;-81
2022/04/10 02:51:49;;;;;;;;;;;6.00;79.40;;;;;;5057805;28;19932;-80
2022/04/10 02:54:16;;;;;;;;;;;6.00;79.50;;;;;;5056630;28;19932;-80
2022/04/10 02:56:42;;;;;;;;;;;6.00;79.50;;;;;;5058424;28;20624;-80
2022/04/10 02:59:09;;;;;;;;;;;5.90;79.50;;;;;;5051536;28;19932;-80
2022/04/10 03:01:35;;;;;;;;;;;5.90;79.60;;;;;;5055148;28;19940;-80
2022/04/10 03:04:02;;;;;;;;;;;5.90;79.70;;;;;;5056700;28;19932;-80
2022/04/10 03:06:30;;;;;;;;;;;5.90;79.80;;;;;;5053721;28;19929;-80
2022/04/10 03:08:57;;;;;;;;;;;5.90;79.80;;;;;;5057205;28;19935;-80
2022/04/10 03:11:25;;;;;;;;;;;5.90;79.90;;;;;;5054819;28;19932;-80
2022/04/10 03:13:51;;;;;;;;;;;5.90;80.00;;;;;;5055713;28;20007;-80
2022/04/10 03:16:18;;;;;;;;;;;5.90;80.00;;;;;;5056750;28;20014;-80
2022/04/10 03:18:44;;;;;;;;;;;5.80;80.00;;;;;;5057686;28;19928;-80
2022/04/10 03:21:11;;;;;;;;;;;5.80;80.10;;;;;;5057857;28;19936;-80
2022/04/10 03:23:39;;;;;;;;;;;5.80;80.30;;;;;;5053595;28;19939;-80
2022/04/10 03:26:05;;;;;;;;;;;5.80;80.30;;;;;;5050011;28;19929;-80
2022/04/10 03:28:32;;;;;;;;;;;5.70;80.30;;;;;;5056560;28;19934;-80
2022/04/10 03:30:58;;;;;;;;;;;5.70;80.30;;;;;;5052555;28;19932;-80
2022/04/10 03:33:25;;;;;;;;;;;5.70;80.40;;;;;;5055123;28;19940;-80
2022/04/10 03:35:53;;;;;;;;;;;5.70;80.50;;;;;;5049085;28;20648;-80
2022/04/10 03:38:19;;;;;;;;;;;5.70;80.50;;;;;;5052683;28;19929;-80
2022/04/10 03:40:47;;;;;;;;;;;5.70;80.60;;;;;;5055634;28;19933;-80
2022/04/10 03:43:14;;;;;;;;;;;5.70;80.70;;;;;;5054622;28;19939;-80
2022/04/10 03:45:41;;;;;;;;;;;5.60;80.60;;;;;;5054364;28;20475;-80
2022/04/10 03:48:08;;;;;;;;;;;5.60;80.70;;;;;;5056096;28;20028;-80
2022/04/10 03:50:35;;;;;;;;;;;5.60;80.80;;;;;;5051938;28;19935;-80
2022/04/10 03:53:02;;;;;;;;;;;5.60;80.90;;;;;;5057344;28;19940;-80
2022/04/10 03:55:28;;;;;;;;;;;5.60;80.90;;;;;;5057134;28;20312;-80
2022/04/10 03:57:56;;;;;;;;;;;5.60;80.90;;;;;;5062492;28;19967;-80
2022/04/10 04:00:23;;;;;;;;;;;5.50;81.00;;;;;;5051599;28;19933;-79
2022/04/10 04:02:49;;;;;;;;;;;5.60;81.10;;;;;;5051218;28;19928;-80
2022/04/10 04:05:16;;;;;;;;;;;5.50;81.00;;;;;;5058379;28;19940;-80
2022/04/10 04:07:43;;;;;;;;;;;5.50;81.10;;;;;;5052424;28;19928;-80
2022/04/10 04:10:10;;;;;;;;;;;5.50;81.10;;;;;;5054026;28;20010;-79
2022/04/10 04:12:37;;;;;;;;;;;5.50;81.20;;;;;;5058128;28;20594;-80
2022/04/10 04:15:06;;;;;;;;;;;5.50;81.20;;;;;;5051114;28;19929;-80
2022/04/10 04:17:33;;;;;;;;;;;5.50;81.40;;;;;;5058275;28;19928;-80
2022/04/10 04:20:01;;;;;;;;;;;5.50;81.30;;;;;;5056282;28;20035;-80
2022/04/10 04:22:27;;;;;;;;;;;5.50;81.40;;;;;;5052935;28;19932;-81
2022/04/10 04:24:54;;;;;;;;;;;5.40;81.40;;;;;;5054040;28;19928;-81
2022/04/10 04:27:21;;;;;;;;;;;5.40;81.40;;;;;;5056100;28;19928;-81
2022/04/10 04:29:47;;;;;;;;;;;5.40;81.50;;;;;;5054708;28;19940;-81
2022/04/10 04:32:15;;;;;;;;;;;5.40;81.50;;;;;;5050018;28;19936;-81
2022/04/10 04:34:42;;;;;;;;;;;5.40;81.60;;;;;;5052245;28;19936;-81
2022/04/10 04:37:09;;;;;;;;;;;5.40;81.60;;;;;;5056227;28;19939;-81
2022/04/10 04:39:36;;;;;;;;;;;5.40;81.70;;;;;;5053358;28;19942;-81
2022/04/10 04:42:02;;;;;;;;;;;5.40;81.80;;;;;;5057497;28;19940;-82
2022/04/10 04:44:30;;;;;;;;;;;5.30;81.80;;;;;;5055495;28;19932;-81
2022/04/10 04:46:57;;;;;;;;;;;5.30;81.80;;;;;;5055500;28;20481;-81
2022/04/10 04:49:25;;;;;;;;;;;5.30;81.90;;;;;;5058869;28;19943;-81
2022/04/10 04:51:51;;;;;;;;;;;5.30;82.00;;;;;;5055487;28;19939;-81
2022/04/10 04:54:18;;;;;;;;;;;5.30;82.80;;;;;;5060195;28;19939;-80
2022/04/10 04:56:44;;;;;;;;;;;5.30;82.10;;;;;;5052136;28;19932;-80
2022/04/10 04:59:12;;;;;;;;;;;5.30;82.20;;;;;;5050668;28;19928;-79
2022/04/10 05:01:41;;;;;;;;;;;5.30;82.20;;;;;;5055413;28;19928;-81
2022/04/10 05:04:07;;;;;;;;;;;5.30;82.30;;;;;;5053952;28;19932;-80
2022/04/10 05:06:35;;;;;;;;;;;5.30;82.60;;;;;;5056797;28;19929;-81
2022/04/10 05:09:02;;;;;;;;;;;5.20;82.30;;;;;;5055841;28;19950;-80
2022/04/10 05:11:28;;;;;;;;;;;5.20;82.30;;;;;;5056792;28;19928;-80
2022/04/10 05:13:55;;;;;;;;;;;5.20;82.50;;;;;;5055674;28;19928;-80
2022/04/10 05:16:22;;;;;;;;;;;5.20;82.50;;;;;;5059229;28;19928;-80
2022/04/10 05:18:49;;;;;;;;;;;5.20;82.60;;;;;;5055031;28;20043;-80
2022/04/10 05:21:15;;;;;;;;;;;5.20;82.60;;;;;;5060753;28;19928;-80
2022/04/10 05:23:43;;;;;;;;;;;5.10;82.70;;;;;;5060799;28;19932;-82
2022/04/10 05:26:10;;;;;;;;;;;5.10;82.70;;;;;;5057614;28;19936;-82
2022/04/10 05:28:37;;;;;;;;;;;5.10;82.70;;;;;;5057158;28;19935;-82
2022/04/10 05:31:03;;;;;;;;;;;5.10;82.80;;;;;;5060133;28;19998;-82
2022/04/10 05:33:30;;;;;;;;;;;5.10;82.80;;;;;;5055236;28;21206;-82
2022/04/10 05:35:56;;;;;;;;;;;5.10;82.90;;;;;;5057471;28;20509;-82
2022/04/10 05:38:23;;;;;;;;;;;5.10;83.10;;;;;;5050905;28;19935;-82
2022/04/10 05:40:53;;;;;;;;;;;5.10;83.00;;;;;;5056133;28;19932;-82
2022/04/10 05:43:20;;;;;;;;;;;5.10;83.20;;;;;;5058222;28;19928;-82
2022/04/10 05:45:46;;;;;;;;;;;5.10;83.10;;;;;;5048135;28;19928;-81
2022/04/10 05:48:13;;;;;;;;;;;5.10;83.20;;;;;;5054652;28;19929;-81
2022/04/10 05:50:39;;;;;;;;;;;5.10;83.20;;;;;;5051211;28;19928;-82
2022/04/10 05:53:06;;;;;;;;;;;5.10;83.30;;;;;;5052015;28;19936;-82
2022/04/10 05:55:32;;;;;;;;;;;5.10;83.20;;;;;;5055157;28;19939;-79
2022/04/10 05:58:01;;;;;;;;;;;5.10;83.30;;;;;;5061119;28;20156;-80
2022/04/10 06:00:27;;;;;;;;;;;5.10;83.20;;;;;;5061653;28;20407;-79
2022/04/10 06:02:54;;;;;;;;;;;5.10;83.20;;;;;;5064819;28;20011;-80
2022/04/10 06:05:21;;;;;;;;;;;5.10;83.20;;;;;;5066169;28;19932;-79
2022/04/10 06:07:48;;;;;;;;;;;5.10;83.30;;;;;;5061528;28;20746;-80
2022/04/10 06:10:15;;;;;;;;;;;5.10;83.30;;;;;;5065971;28;20438;-79
2022/04/10 06:12:41;;;;;;;;;;;5.10;83.30;;;;;;5063545;28;19935;-80
2022/04/10 06:15:10;;;;;;;;;;;5.10;83.30;;;;;;5063565;28;21049;-80
2022/04/10 06:17:36;;;;;;;;;;;5.10;83.30;;;;;;5064933;28;19938;-80
2022/04/10 06:20:03;;;;;;;;;;;5.10;83.30;;;;;;5064128;28;20053;-80
2022/04/10 06:22:30;;;;;;;;;;;5.10;83.40;;;;;;5066932;28;19928;-80
2022/04/10 06:24:57;;;;;;;;;;;5.10;83.40;;;;;;5066771;28;19938;-80
2022/04/10 06:27:23;;;;;;;;;;;5.10;83.40;;;;;;5066394;28;19933;-79
2022/04/10 06:29:50;;;;;;;;;;;5.10;83.40;;;;;;5066494;28;19928;-80
2022/04/10 06:32:18;;;;;;;;;;;5.10;83.40;;;;;;5064994;28;20331;-80
2022/04/10 06:34:44;;;;;;;;;;;5.10;83.40;;;;;;5066455;28;20008;-80
2022/04/10 06:37:12;;;;;;;;;;;5.10;83.50;;;;;;5065693;28;19940;-80
2022/04/10 06:39:39;;;;;;;;;;;5.10;83.50;;;;;;5058747;28;20848;-80
2022/04/10 06:42:06;;;;;;;;;;;5.10;83.60;;;;;;5068832;28;19928;-80
2022/04/10 06:44:32;;;;;;;;;;;5.10;83.60;;;;;;5066366;28;19929;-80
2022/04/10 06:46:59;;;;;;;;;;;5.10;83.70;;;;;;5060797;28;20165;-80
2022/04/10 06:49:27;;;;;;;;;;;5.10;83.60;;;;;;5063021;28;20384;-80
2022/04/10 06:51:54;;;;;;;;;;;5.20;83.70;;;;;;5064920;28;20288;-80
2022/04/10 06:54:20;;;;;;;;;;;5.20;83.80;;;;;;5064180;28;19928;-80
2022/04/10 06:56:47;;;;;;;;;;;5.10;83.80;;;;;;5065949;28;19932;-80
2022/04/10 06:59:13;;;;;;;;;;;5.10;83.80;;;;;;5065701;28;19940;-80
2022/04/10 07:01:40;;;;;;;;;;;5.20;83.80;;;;;;5064358;28;20061;-80
2022/04/10 07:04:06;;;;;;;;;;;5.20;83.80;;;;;;5062572;28;20543;-79
2022/04/10 07:06:34;;;;;;;;;;;5.20;83.80;;;;;;5060415;28;19929;-79
2022/04/10 07:09:01;;;;;;;;;;;5.20;83.80;;;;;;5057979;28;19928;-79
2022/04/10 07:11:27;;;;;;;;;;;5.20;83.80;;;;;;5062465;28;19936;-79
2022/04/10 07:13:54;;;;;;;;;;;5.20;83.80;;;;;;5059171;28;19929;-79
2022/04/10 07:16:20;;;;;;;;;;;5.20;83.80;;;;;;5065692;28;19935;-79
2022/04/10 07:18:47;;;;;;;;;;;5.20;83.90;;;;;;5061819;28;19936;-79
2022/04/10 07:21:14;;;;;;;;;;;5.20;84.00;;;;;;5062726;28;19933;-80
2022/04/10 07:23:43;;;;;;;;;;;5.30;84.10;;;;;;5064632;28;19928;-79
2022/04/10 07:26:10;;;;;;;;;;;5.30;84.10;;;;;;5061957;28;19935;-80
2022/04/10 07:28:37;;;;;;;;;;;5.30;84.00;;;;;;5061398;28;20431;-79
2022/04/10 07:31:04;;;;;;;;;;;5.30;84.00;;;;;;5061631;28;20653;-78
2022/04/10 07:33:31;;;;;;;;;;;5.30;83.90;;;;;;5062522;28;19935;-79
2022/04/10 07:35:57;;;;;;;;;;;5.30;83.80;;;;;;5062752;28;19932;-79
2022/04/10 07:38:24;;;;;;;;;;;5.40;83.80;;;;;;5056861;28;19933;-79
2022/04/10 07:40:52;;;;;;;;;;;5.30;83.70;;;;;;5060657;28;20387;-79
2022/04/10 07:43:18;;;;;;;;;;;5.40;83.70;;;;;;5064348;28;20579;-79
2022/04/10 07:48:30;;;;;;;;;;;5.40;83.70;;;;;;5061465;28;20120;-79
2022/04/10 07:50:57;;;;;;;;;;;5.50;83.70;;;;;;5064513;28;19929;-79
2022/04/10 07:53:23;;;;;;;;;;;5.50;83.70;;;;;;5056991;28;19936;-79
2022/04/10 07:55:51;;;;;;;;;;;5.50;83.60;;;;;;5059995;28;19955;-79
2022/04/10 07:58:18;;;;;;;;;;;5.50;83.70;;;;;;5065237;28;19928;-80
2022/04/10 08:00:44;;;;;;;;;;;5.60;83.70;;;;;;5062253;28;19935;-81
2022/04/10 08:03:11;;;;;;;;;;;5.60;83.60;;;;;;5060835;28;19950;-80
2022/04/10 08:05:38;;;;;;;;;;;5.60;83.50;;;;;;5049410;28;19928;-83
2022/04/10 08:08:05;;;;;;;;;;;5.60;83.50;;;;;;5058551;28;19940;-83
2022/04/10 08:10:32;;;;;;;;;;;5.60;84.20;;;;;;5052156;28;19932;-83
2022/04/10 08:13:00;;;;;;;;;;;5.70;83.40;;;;;;5057834;28;19928;-83
2022/04/10 08:15:27;;;;;;;;;;;5.70;83.30;;;;;;5050292;28;19971;-82
2022/04/10 08:17:54;;;;;;;;;;;5.70;83.20;;;;;;5059092;28;19925;-82
2022/04/10 08:20:20;;;;;;;;;;;5.80;83.20;;;;;;5062985;28;19932;-83
2022/04/10 08:22:48;;;;;;;;;;;5.80;83.10;;;;;;5059830;28;19928;-83
2022/04/10 08:25:16;;;;;;;;;;;5.80;83.00;;;;;;5061098;28;19935;-82
2022/04/10 08:27:42;;;;;;;;;;;5.80;82.80;;;;;;5060503;28;20242;-83
2022/04/10 08:30:12;;;;;;;;;;;5.90;82.60;;;;;;5054327;28;19929;-83
2022/04/10 08:32:40;;;;;;;;;;;5.90;82.50;;;;;;5052808;28;19928;-82
2022/04/10 08:35:07;;;;;;;;;;;6.00;82.40;;;;;;5061686;28;19972;-83
2022/04/10 08:37:34;;;;;;;;;;;6.00;82.20;;;;;;5051440;28;19940;-83
2022/04/10 08:40:01;;;;;;;;;;;6.00;82.10;;;;;;5057207;28;19932;-83
2022/04/10 08:42:27;;;;;;;;;;;6.10;82.00;;;;;;5061895;28;19936;-83
2022/04/10 08:45:04;;;;;;;;;;;6.10;81.80;;;;;;5056808;28;19936;-83
2022/04/10 08:47:32;;;;;;;;;;;6.10;81.70;;;;;;5049173;28;19940;-82
2022/04/10 08:50:01;;;;;;;;;;;6.20;81.50;;;;;;5053509;28;20047;-83
2022/04/10 08:52:27;;;;;;;;;;;6.20;81.50;;;;;;5051031;28;19933;-83
2022/04/10 08:54:54;;;;;;;;;;;6.20;81.10;;;;;;5054627;28;19936;-83
2022/04/10 08:57:20;;;;;;;;;;;6.30;81.30;;;;;;5049118;28;19933;-83
2022/04/10 08:59:47;;;;;;;;;;;6.30;81.30;;;;;;5045802;28;19935;-83
2022/04/10 09:02:13;;;;;;;;;;;6.30;81.20;;;;;;5043280;28;19939;-83
2022/04/10 09:04:41;;;;;;;;;;;6.30;81.70;;;;;;5049714;28;19933;-83
2022/04/10 09:07:09;;;;;;;;;;;6.30;81.00;;;;;;5059968;28;19936;-83
2022/04/10 09:09:37;;;;;;;;;;;6.40;81.00;;;;;;5050094;28;19939;-83
2022/04/10 09:12:04;;;;;;;;;;;6.40;80.80;;;;;;5057721;28;19932;-83
2022/04/10 09:14:35;;;;;;;;;;;6.40;80.60;;;;;;5053754;28;20749;-83
2022/04/10 09:17:11;;;;;;;;;;;6.40;80.60;;;;;;5054832;28;19936;-83
2022/04/10 09:19:39;;;;;;;;;;;6.40;80.50;;;;;;5051555;28;20019;-82
2022/04/10 09:22:22;;;;;;;;;;;6.40;80.50;;;;;;5048545;28;19928;-82
2022/04/10 09:25:02;;;;;;;;;;;6.50;80.40;;;;;;5052045;28;19932;-82
2022/04/10 09:27:29;;;;;;;;;;;6.50;80.20;;;;;;5049147;28;19939;-83
2022/04/10 09:29:55;;;;;;;;;;;6.50;80.10;;;;;;5052089;28;19928;-83
2022/04/10 09:32:22;;;;;;;;;;;6.50;79.80;;;;;;5046642;28;19935;-83
2022/04/10 09:34:55;;;;;;;;;;;6.50;79.60;;;;;;5054801;28;19929;-83
2022/04/10 09:37:23;;;;;;;;;;;6.60;79.40;;;;;;5058115;28;19928;-82
2022/04/10 09:39:50;;;;;;;;;;;6.60;79.40;;;;;;5050269;28;19933;-83
2022/04/10 09:42:17;;;;;;;;;;;6.60;79.30;;;;;;5064940;28;19954;-82
2022/04/10 09:44:43;;;;;;;;;;;6.70;79.30;;;;;;5052776;28;20319;-83
2022/04/10 09:47:11;;;;;;;;;;;6.70;79.20;;;;;;5051893;28;20328;-83
2022/04/10 09:49:38;;;;;;;;;;;6.70;79.10;;;;;;5047052;28;19929;-82
2022/04/10 09:52:06;;;;;;;;;;;6.80;79.10;;;;;;5054761;28;19938;-82
2022/04/10 09:54:35;;;;;;;;;;;6.80;78.80;;;;;;5049414;28;19943;-82
2022/04/10 09:57:02;;;;;;;;;;;6.80;78.80;;;;;;5050621;28;20374;-83
2022/04/10 09:59:31;;;;;;;;;;;6.90;78.90;;;;;;5050852;28;19928;-82
2022/04/10 10:01:58;;;;;;;;;;;6.90;79.10;;;;;;5048594;28;20755;-83
2022/04/10 10:04:25;;;;;;;;;;;6.90;78.80;;;;;;5054290;28;19929;-83
2022/04/10 10:06:52;;;;;;;;;;;6.90;78.80;;;;;;5040845;28;19929;-83
2022/04/10 10:09:19;;;;;;;;;;;6.90;78.80;;;;;;5045640;28;19936;-83
2022/04/10 10:11:47;;;;;;;;;;;6.90;78.70;;;;;;5054757;28;19928;-83
2022/04/10 10:14:14;;;;;;;;;;;7.00;78.70;;;;;;5051064;28;20003;-83
2022/04/10 10:16:41;;;;;;;;;;;7.00;78.70;;;;;;5052397;28;19936;-83
2022/04/10 10:19:09;;;;;;;;;;;7.10;78.70;;;;;;5053458;28;19968;-83
2022/04/10 10:21:36;;;;;;;;;;;7.10;78.60;;;;;;5050756;28;19959;-83
2022/04/10 10:24:03;;;;;;;;;;;7.10;78.50;;;;;;5050400;28;19979;-83
2022/04/10 10:26:37;;;;;;;;;;;7.10;78.40;;;;;;5048865;28;20302;-83
2022/04/10 10:29:11;;;;;;;;;;;7.20;78.40;;;;;;5055575;28;19928;-83
2022/04/10 10:31:47;;;;;;;;;;;7.20;78.30;;;;;;5053380;28;19928;-83
2022/04/10 10:34:14;;;;;;;;;;;7.20;78.10;;;;;;5050640;28;20034;-83
2022/04/10 10:36:41;;;;;;;;;;;7.30;78.10;;;;;;5053283;28;19932;-83
2022/04/10 10:39:08;;;;;;;;;;;7.20;78.00;;;;;;5045788;28;19940;-83
2022/04/10 10:41:35;;;;;;;;;;;7.30;78.00;;;;;;5057594;28;19935;-82
2022/04/10 10:44:38;;;;;;;;;;;7.30;77.90;;;;;;5060250;28;19928;-83
2022/04/10 10:47:04;;;;;;;;;;;7.40;78.00;;;;;;5055491;28;19928;-84
2022/04/10 10:49:32;;;;;;;;;;;7.40;77.80;;;;;;5058018;28;19933;-83
2022/04/10 10:51:59;;;;;;;;;;;7.50;77.80;;;;;;5046995;28;19932;-83
2022/04/10 10:54:35;;;;;;;;;;;7.50;77.70;;;;;;5052129;28;19933;-83
2022/04/10 10:57:16;;;;;;;;;;;7.50;77.60;;;;;;5050024;28;19936;-83
2022/04/10 10:59:44;;;;;;;;;;;7.50;77.60;;;;;;5052415;28;19940;-83
2022/04/10 11:02:11;;;;;;;;;;;7.50;77.30;;;;;;5048450;28;19928;-83
2022/04/10 11:04:39;;;;;;;;;;;7.50;77.40;;;;;;5050130;28;19999;-83
2022/04/10 11:07:13;;;;;;;;;;;7.60;77.40;;;;;;5052732;28;19929;-84
2022/04/10 11:09:52;;;;;;;;;;;7.60;77.40;;;;;;5049926;28;19980;-83
2022/04/10 11:12:21;;;;;;;;;;;7.70;77.30;;;;;;5059846;28;19928;-83
2022/04/10 11:14:51;;;;;;;;;;;7.70;77.40;;;;;;5051640;28;20967;-82
2022/04/10 11:17:18;;;;;;;;;;;7.80;76.90;;;;;;5058155;28;19928;-83
2022/04/10 11:19:46;;;;;;;;;;;7.80;76.60;;;;;;5058705;28;20058;-83
2022/04/10 11:22:14;;;;;;;;;;;7.90;76.70;;;;;;5053458;28;19935;-82
2022/04/10 11:24:41;;;;;;;;;;;7.90;76.70;;;;;;5062338;28;20023;-82
2022/04/10 11:27:11;;;;;;;;;;;8.00;76.40;;;;;;5059793;28;19928;-83
2022/04/10 11:29:42;;;;;;;;;;;8.00;76.10;;;;;;5058340;28;19928;-83
2022/04/10 11:32:16;;;;;;;;;;;8.10;75.90;;;;;;5058828;28;19933;-83
2022/04/10 11:34:43;;;;;;;;;;;8.10;75.70;;;;;;5061363;28;20510;-83
2022/04/10 11:37:16;;;;;;;;;;;8.10;75.50;;;;;;5051607;28;19956;-82
2022/04/10 11:39:43;;;;;;;;;;;8.20;75.50;;;;;;5052516;28;19929;-83
2022/04/10 11:42:11;;;;;;;;;;;8.20;75.40;;;;;;5058302;28;19936;-82
2022/04/10 11:44:38;;;;;;;;;;;8.20;75.40;;;;;;5052182;28;20010;-82
2022/04/10 11:47:08;;;;;;;;;;;8.20;76.20;;;;;;5049912;28;20495;-82
2022/04/10 11:49:36;;;;;;;;;;;8.20;75.50;;;;;;5055784;28;19928;-82
2022/04/10 11:52:03;;;;;;;;;;;8.20;75.70;;;;;;5057250;28;19936;-82
2022/04/10 11:54:31;;;;;;;;;;;8.20;76.30;;;;;;5049459;28;19987;-82
2022/04/10 11:56:59;;;;;;;;;;;8.20;77.50;;;;;;5047864;28;19929;-83
2022/04/10 11:59:25;;;;;;;;;;;8.20;78.60;;;;;;5046590;28;20048;-83
2022/04/10 12:01:52;;;;;;;;;;;8.10;79.10;;;;;;5052375;28;20748;-83
2022/04/10 12:04:19;;;;;;;;;;;8.20;79.20;;;;;;5058130;28;19928;-83
2022/04/10 12:06:47;;;;;;;;;;;8.10;79.40;;;;;;5055923;28;19972;-83
2022/04/10 12:09:15;;;;;;;;;;;8.10;79.60;;;;;;5048558;28;20344;-81
2022/04/10 12:11:42;;;;;;;;;;;8.10;80.00;;;;;;5056712;28;20028;-81
2022/04/10 12:14:16;;;;;;;;;;;8.10;79.80;;;;;;5048936;28;20416;-82
2022/04/10 12:16:43;;;;;;;;;;;8.10;79.50;;;;;;5051365;28;19928;-83
2022/04/10 12:19:09;;;;;;;;;;;8.20;80.30;;;;;;5057326;28;19932;-82
2022/04/10 12:21:36;;;;;;;;;;;8.20;80.50;;;;;;5049660;28;20011;-82
2022/04/10 12:24:05;;;;;;;;;;;8.30;80.40;;;;;;5049160;28;19944;-82
2022/04/10 12:26:33;;;;;;;;;;;8.40;79.50;;;;;;5050235;28;20734;-83
2022/04/10 12:29:00;;;;;;;;;;;8.50;78.90;;;;;;5052790;28;19928;-82
2022/04/10 12:31:26;;;;;;;;;;;8.50;79.90;;;;;;5043901;28;19940;-82
2022/04/10 12:33:54;;;;;;;;;;;8.60;79.70;;;;;;5049462;28;19933;-82
2022/04/10 12:36:23;;;;;;;;;;;8.70;79.90;;;;;;5052066;28;19928;-82
2022/04/10 12:38:51;;;;;;;;;;;8.80;79.20;;;;;;5045218;28;19940;-82
2022/04/10 12:41:27;;;;;;;;;;;8.90;78.20;;;;;;5058863;28;20458;-82
2022/04/10 12:44:00;;;;;;;;;;;8.90;77.60;;;;;;5051957;28;20043;-82
2022/04/10 12:46:32;;;;;;;;;;;9.00;77.60;;;;;;5049461;28;20498;-82
2022/04/10 12:49:11;;;;;;;;;;;9.10;77.20;;;;;;5049368;28;19928;-82
2022/04/10 12:51:46;;;;;;;;;;;9.20;77.30;;;;;;5050466;28;20027;-82
2022/04/10 12:54:13;;;;;;;;;;;9.30;77.30;;;;;;5044467;28;19928;-82
2022/04/10 12:56:41;;;;;;;;;;;9.30;77.30;;;;;;5059329;28;19939;-82
2022/04/10 12:59:07;;;;;;;;;;;9.40;77.00;;;;;;5051363;28;19936;-82
2022/04/10 13:01:34;;;;;;;;;;;9.40;76.60;;;;;;5052650;28;19929;-82
2022/04/10 13:04:01;;;;;;;;;;;9.50;76.30;;;;;;5047101;28;19985;-82
2022/04/10 13:06:47;;;;;;;;;;;9.60;76.10;;;;;;5052204;28;19932;-82
2022/04/10 13:09:15;;;;;;;;;;;9.60;75.90;;;;;;5045508;28;20481;-82
2022/04/10 13:11:43;;;;;;;;;;;9.60;75.70;;;;;;5052884;28;19928;-82
2022/04/10 13:14:10;;;;;;;;;;;9.60;75.40;;;;;;5054690;28;19940;-81
2022/04/10 13:16:38;;;;;;;;;;;9.60;75.10;;;;;;5054203;28;19928;-82
2022/04/10 13:19:05;;;;;;;;;;;9.60;75.00;;;;;;5054550;28;19929;-81
2022/04/10 13:21:33;;;;;;;;;;;9.50;75.40;;;;;;5053406;28;19928;-82
2022/04/10 13:24:00;;;;;;;;;;;9.50;75.40;;;;;;5048808;28;20310;-82
2022/04/10 13:26:27;;;;;;;;;;;9.50;75.10;;;;;;5056905;28;19935;-82
2022/04/10 13:28:55;;;;;;;;;;;9.50;75.10;;;;;;5049826;28;19947;-82
2022/04/10 13:31:21;;;;;;;;;;;9.40;75.30;;;;;;5050381;28;19936;-82
2022/04/10 13:33:48;;;;;;;;;;;9.40;75.30;;;;;;5052591;28;19933;-82
2022/04/10 13:36:15;;;;;;;;;;;9.40;75.30;;;;;;5049017;28;19933;-82
2022/04/10 13:38:41;;;;;;;;;;;9.40;75.20;;;;;;5046129;28;19936;-82
2022/04/10 13:41:10;;;;;;;;;;;9.40;75.40;;;;;;5056006;28;19929;-82
2022/04/10 13:43:37;;;;;;;;;;;9.30;75.40;;;;;;5055220;28;20444;-82
2022/04/10 13:46:05;;;;;;;;;;;9.30;75.50;;;;;;5054411;28;19956;-82
2022/04/10 13:48:31;;;;;;;;;;;9.30;75.50;;;;;;5053447;28;20093;-82
2022/04/10 13:50:58;;;;;;;;;;;9.30;75.50;;;;;;5061102;28;19929;-82
2022/04/10 13:53:25;;;;;;;;;;;9.30;75.60;;;;;;5048838;28;19928;-82
2022/04/10 13:55:51;;;;;;;;;;;9.30;75.60;;;;;;5048946;28;19928;-82
2022/04/10 13:58:18;;;;;;;;;;;9.30;75.50;;;;;;5055201;28;20406;-82
2022/04/10 14:00:44;;;;;;;;;;;9.30;75.50;;;;;;5054199;28;19928;-82
2022/04/10 14:03:12;;;;;;;;;;;9.30;75.60;;;;;;5055273;28;19928;-83
2022/04/10 14:05:39;;;;;;;;;;;9.30;75.50;;;;;;5063671;28;19928;-83
2022/04/10 14:08:06;;;;;;;;;;;9.30;75.50;;;;;;5052023;28;19933;-82
2022/04/10 14:10:33;;;;;;;;;;;9.30;75.50;;;;;;5050512;28;19928;-82
2022/04/10 14:12:59;;;;;;;;;;;9.30;75.70;;;;;;5048349;28;19929;-82
2022/04/10 14:15:26;;;;;;;;;;;9.30;76.30;;;;;;5058275;28;19935;-83
2022/04/10 14:17:56;;;;;;;;;;;9.30;76.30;;;;;;5054242;28;19947;-82
2022/04/10 14:20:23;;;;;;;;;;;9.30;77.40;;;;;;5057283;28;19956;-82
2022/04/10 14:22:50;;;;;;;;;;;9.30;77.80;;;;;;5059081;28;19932;-82
2022/04/10 14:25:17;;;;;;;;;;;9.20;77.20;;;;;;5053071;28;19936;-82
2022/04/10 14:27:43;;;;;;;;;;;9.20;77.70;;;;;;5054182;28;20162;-82
2022/04/10 14:30:10;;;;;;;;;;;9.20;77.70;;;;;;5052085;28;19928;-82
2022/04/10 14:32:37;;;;;;;;;;;9.20;77.90;;;;;;5048479;28;20475;-82
2022/04/10 14:35:03;;;;;;;;;;;9.20;78.30;;;;;;5058182;28;20392;-82